Tuesday, September 02, 2014
21:25 UTC
  |  Log In   |  Register Free
Airport Search:

New Richmond Regional Airport
(KRNH)

New Richmond Regional Airport Diagram
No Airport Diagram Available

FAA data valid effective July 24, 2014 until September 18, 2014 (unless otherwise noted).

 
 
 
 
 
 
 
 
 
 
 
 
 
 

Current Aviation Weather for New Richmond Regional Airport (KRNH)

The most recent METAR observation for KRNH was updated at: 2050 UTC
METAR Summary (Translated METAR)
KRNH
022050Z AUTO 25009KT 10SM CLR 25/10 A2989 RMK AO2 T02450103
KOEO
(11.6 nm NW from KRNH)
022055Z AUTO 24006KT 10SM CLR 25/10 A2991 RMK AO2 T02450097
TAF Summary (Translated TAF)
KRNH
021734Z 0218/0318 26007KT P6SM FEW250 FM030200 21004KT P6SM FEW200 FM031200 18008KT P6SM SCT100 BKN200 FM031600 17011KT P6SM VCSH SCT050 BKN100
  Airport Weather Conditions for KRNH

 Current Weather at RNH
76° F
Fair
West winds at 11.5 mph
RNH NOAA Radar

Pressure: 29.89 in
Humidity: 39%
Wind: West at 11.5 MPH (10 KT)
Dew Point: 48.9°F
Visibility: 10.00 mi


Airport Weather Forecast for KRNH

Translated METAR and TAF for KRNH
Translated METAR for KRNH (2119 UTC 02 September 2014)
found at http://aviationweather.gov/adds/metars/
 
METAR text: KRNH 022050Z AUTO 25009KT 10SM CLR 25/10 A2989 RMK AO2 T02450103
Conditions at: KRNH (NEW RICHMOND MUN, WI, US) observed 2050 UTC 02 September 2014
Temperature: 24.5°C (76°F)
Dewpoint: 10.3°C (51°F) [RH = 41%]
Pressure (altimeter): 29.89 inches Hg (1012.3 mb)
Winds: from the WSW (250 degrees) at 10 MPH (9 knots; 4.7 m/s)
Visibility: 10 or more miles (16+ km)
Ceiling: at least 12,000 feet AGL
Clouds: sky clear below 12,000 feet AGL
Weather: automated observation with no human augmentation;
there may or may not be significant weather present at this time
Translated TAF for KRNH
Forecast for: KRNH (NEW RICHMOND MUN, WI, US)
TAF Text: KRNH 021734Z 0218/0318 26007KT P6SM FEW250
Forecast period: 1800 UTC 02 September 2014 to 0200 UTC 03 September 2014
Forecast type: FROM: standard forecast or significant change
Winds: from the W (260 degrees) at 8 MPH (7 knots; 3.6 m/s)
Visibility: 6 or more miles (10+ km)
Clouds: few clouds at 25000 feet AGL
Weather: no significant weather forecast for this period
TAF Text: FM030200 21004KT P6SM FEW200
Forecast period: 0200 to 1200 UTC 03 September 2014
Forecast type: FROM: standard forecast or significant change
Winds: from the SSW (210 degrees) at 5 MPH (4 knots; 2.1 m/s)
Visibility: 6 or more miles (10+ km)
Clouds: few clouds at 20000 feet AGL
Weather: no significant weather forecast for this period
TAF Text: FM031200 18008KT P6SM SCT100 BKN200
Forecast period: 1200 to 1600 UTC 03 September 2014
Forecast type: FROM: standard forecast or significant change
Winds: from the S (180 degrees) at 9 MPH (8 knots; 4.2 m/s)
Visibility: 6 or more miles (10+ km)
Ceiling: 20000 feet AGL
Clouds: scattered clouds at 10000 feet AGL
broken clouds at 20000 feet AGL
Weather: no significant weather forecast for this period
TAF Text: FM031600 17011KT P6SM VCSH SCT050 BKN100
Forecast period: 1600 to 1800 UTC 03 September 2014
Forecast type: FROM: standard forecast or significant change
Winds: from the S (170 degrees) at 13 MPH (11 knots; 5.7 m/s)
Visibility: 6 or more miles (10+ km)
Ceiling: 10000 feet AGL
Clouds: scattered clouds at 5000 feet AGL
broken clouds at 10000 feet AGL
Weather: VCSH  (showers in vicinity)

Find All Airport Services Find A Hotel Find A Rental Car Find A Golf Course Find A Restaurant $100 Hamburger



FBO's on the Field
FBO Company Facility Photos Services Transportation Aviation Fuel Prices: Prices include tax
Catering Weather Repair Courtesy Rental Type 100LL JetA JetA+ MOGAS 8087
 
Griggs Aviation

This FBO has not yet been rated
FS:Independent
Last Updated: Aug-06
Login to update fuel prices
SS:
Contact Griggs AviationMore FBO Information
 
Add another FBO Facility Photos Catering Weather Repair Courtesy Rental Type 100LL JetA JetA+ MOGAS 8087
Services Transportation Aviation Fuel Prices: Prices include tax


GlobalAir.com Airport Resource Center model-print
model-print
model-print
model-print